TimeCDT,TemperatureF,Dew PointF,Humidity,Sea Level PressureIn,VisibilityMPH,Wind Direction,Wind SpeedMPH,Gust SpeedMPH,PrecipitationIn,Events,Conditions,WindDirDegrees,DateUTC
12:52 AM,66.9,61.0,81,30.12,10.0,ESE,4.6,-,N/A,,Clear,110,2013-07-14 05:52:00
1:52 AM,64.0,60.1,87,30.13,9.0,East,6.9,-,N/A,,Clear,90,2013-07-14 06:52:00
2:52 AM,64.9,60.1,84,30.13,9.0,East,6.9,-,N/A,,Clear,90,2013-07-14 07:52:00
3:52 AM,64.9,61.0,87,30.13,8.0,East,6.9,-,N/A,,Clear,80,2013-07-14 08:52:00
4:52 AM,64.9,61.0,87,30.13,7.0,East,5.8,-,N/A,,Clear,80,2013-07-14 09:52:00
5:52 AM,66.0,62.1,87,30.12,7.0,East,8.1,-,N/A,,Clear,100,2013-07-14 10:52:00
6:52 AM,68.0,63.0,84,30.12,7.0,ESE,8.1,-,N/A,,Clear,110,2013-07-14 11:52:00
7:52 AM,72.0,64.9,78,30.15,9.0,ESE,8.1,-,N/A,,Clear,110,2013-07-14 12:52:00
8:52 AM,75.9,64.9,69,30.17,10.0,ESE,4.6,-,N/A,,Clear,120,2013-07-14 13:52:00
9:52 AM,78.1,64.9,64,30.17,10.0,East,4.6,-,N/A,,Clear,100,2013-07-14 14:52:00
10:52 AM,81.0,64.9,58,30.18,10.0,ESE,6.9,-,N/A,,Clear,120,2013-07-14 15:52:00
11:52 AM,80.1,64.9,60,30.18,10.0,SE,5.8,-,N/A,,Scattered Clouds,130,2013-07-14 16:52:00
12:52 PM,82.9,66.9,58,30.18,10.0,Variable,5.8,-,N/A,,Partly Cloudy,0,2013-07-14 17:52:00
1:52 PM,84.0,68.0,58,30.18,10.0,East,10.4,18.4,N/A,,Mostly Cloudy,100,2013-07-14 18:52:00
2:52 PM,86.0,64.0,48,30.16,10.0,ESE,10.4,-,N/A,,Partly Cloudy,110,2013-07-14 19:52:00
3:52 PM,87.1,64.0,46,30.16,10.0,SE,13.8,-,N/A,,Clear,140,2013-07-14 20:52:00
4:52 PM,86.0,64.9,49,30.15,10.0,ESE,11.5,16.1,N/A,,Partly Cloudy,120,2013-07-14 21:52:00
5:52 PM,86.0,64.9,49,30.14,10.0,ESE,12.7,-,N/A,,Partly Cloudy,110,2013-07-14 22:52:00
6:52 PM,84.0,64.9,53,30.14,10.0,SE,10.4,-,N/A,,Partly Cloudy,140,2013-07-14 23:52:00
7:52 PM,82.0,66.0,58,30.14,10.0,ESE,4.6,-,N/A,,Clear,120,2013-07-15 00:52:00
8:52 PM,77.0,68.0,74,30.16,10.0,East,4.6,-,N/A,,Clear,100,2013-07-15 01:52:00
9:52 PM,75.0,69.1,82,30.17,10.0,East,5.8,-,N/A,,Clear,80,2013-07-15 02:52:00
10:52 PM,75.0,69.1,82,30.18,10.0,East,4.6,-,N/A,,Clear,80,2013-07-15 03:52:00
11:52 PM,73.9,69.1,85,30.19,10.0,East,5.8,-,N/A,,Clear,80,2013-07-15 04:52:00